Current Weather

Groton-New London

Groton (New London), Connecticut (KGON)

Report from: Wednesday, May 29, 2024 7:56 PM EDT
Current time: Wednesday, May 29, 2024 8:26 PM EDT

Nearby weather – Weather history – Daily summaries
Weather forecast

Temperature19.4°C (66.9°F)
Dew point13.3°C (55.9°F)
Winds 4 kts (2.1 m/s, 4.6 mph) South (190°)
Visibility10 mi. (16.1 km)
Clouds Sky clear
Altimeter29.88 in.Hg (1012 mB)
Relative humidity68 %
Density altitude781 ft. (238 m)
Sea-level pressure101.2 kPa (1012 mB, 29.88 in.Hg)
Max temp last 6 hours22.2°C (72.0°F)
Min temp last 6 hours18.9°C (66.0°F)
Remarks Automated weather observing station with precipitation discriminator
Pressure rising more quickly
Flight conditions Visual Meteorological Conditions
Raw dataKGON 292356Z 19004KT 10SM CLR 19/13 A2988 RMK AO2 SLP117 T01940133 10222 20189 53005
An error has occurred. This application may no longer respond until reloaded. Reload 🗙